sensor_id;sensor_type;location;lat;lon;timestamp;P1;durP1;ratioP1;P2;durP2;ratioP2
12407;SDS011;6268;48.188;17.134;2023-12-20T00:01:11;61.00;;;32.63;;
12407;SDS011;6268;48.188;17.134;2023-12-20T00:03:40;60.57;;;33.67;;
12407;SDS011;6268;48.188;17.134;2023-12-20T00:06:08;85.47;;;34.77;;
12407;SDS011;6268;48.188;17.134;2023-12-20T00:08:37;60.00;;;33.50;;
12407;SDS011;6268;48.188;17.134;2023-12-20T00:11:05;54.60;;;32.87;;
12407;SDS011;6268;48.188;17.134;2023-12-20T00:13:35;62.17;;;33.07;;
12407;SDS011;6268;48.188;17.134;2023-12-20T00:16:04;52.10;;;32.13;;
12407;SDS011;6268;48.188;17.134;2023-12-20T00:18:33;66.20;;;33.20;;
12407;SDS011;6268;48.188;17.134;2023-12-20T00:21:02;55.43;;;31.90;;
12407;SDS011;6268;48.188;17.134;2023-12-20T00:23:31;132.23;;;34.07;;
12407;SDS011;6268;48.188;17.134;2023-12-20T00:26:00;59.53;;;32.27;;
12407;SDS011;6268;48.188;17.134;2023-12-20T00:28:27;71.17;;;32.13;;
12407;SDS011;6268;48.188;17.134;2023-12-20T00:30:57;55.20;;;31.90;;
12407;SDS011;6268;48.188;17.134;2023-12-20T00:33:25;64.57;;;32.33;;
12407;SDS011;6268;48.188;17.134;2023-12-20T00:35:54;48.30;;;31.93;;
12407;SDS011;6268;48.188;17.134;2023-12-20T00:38:22;86.93;;;33.47;;
12407;SDS011;6268;48.188;17.134;2023-12-20T00:40:51;50.73;;;32.33;;
12407;SDS011;6268;48.188;17.134;2023-12-20T00:43:19;66.87;;;32.80;;
12407;SDS011;6268;48.188;17.134;2023-12-20T00:45:48;50.13;;;31.40;;
12407;SDS011;6268;48.188;17.134;2023-12-20T00:48:18;62.57;;;30.87;;
12407;SDS011;6268;48.188;17.134;2023-12-20T00:50:47;52.00;;;30.00;;
12407;SDS011;6268;48.188;17.134;2023-12-20T00:53:15;59.97;;;30.43;;
12407;SDS011;6268;48.188;17.134;2023-12-20T00:55:44;47.77;;;30.33;;
12407;SDS011;6268;48.188;17.134;2023-12-20T00:58:13;47.77;;;28.33;;
12407;SDS011;6268;48.188;17.134;2023-12-20T01:00:42;61.50;;;30.40;;
12407;SDS011;6268;48.188;17.134;2023-12-20T01:03:10;50.03;;;29.87;;
12407;SDS011;6268;48.188;17.134;2023-12-20T01:05:40;50.43;;;29.67;;
12407;SDS011;6268;48.188;17.134;2023-12-20T01:08:09;50.47;;;30.63;;
12407;SDS011;6268;48.188;17.134;2023-12-20T01:10:37;63.50;;;31.20;;
12407;SDS011;6268;48.188;17.134;2023-12-20T01:13:06;54.70;;;30.60;;
12407;SDS011;6268;48.188;17.134;2023-12-20T01:15:35;45.87;;;29.83;;
12407;SDS011;6268;48.188;17.134;2023-12-20T01:18:04;53.43;;;30.83;;
12407;SDS011;6268;48.188;17.134;2023-12-20T01:20:32;54.87;;;28.87;;
12407;SDS011;6268;48.188;17.134;2023-12-20T01:23:02;44.03;;;27.93;;
12407;SDS011;6268;48.188;17.134;2023-12-20T01:25:31;57.77;;;28.33;;
12407;SDS011;6268;48.188;17.134;2023-12-20T01:27:59;54.43;;;30.03;;
12407;SDS011;6268;48.188;17.134;2023-12-20T01:30:29;45.93;;;29.43;;
12407;SDS011;6268;48.188;17.134;2023-12-20T01:32:59;50.47;;;29.73;;
12407;SDS011;6268;48.188;17.134;2023-12-20T01:35:28;45.13;;;29.30;;
12407;SDS011;6268;48.188;17.134;2023-12-20T01:37:56;44.43;;;28.80;;
12407;SDS011;6268;48.188;17.134;2023-12-20T01:40:26;45.83;;;28.93;;
12407;SDS011;6268;48.188;17.134;2023-12-20T01:42:58;44.57;;;29.00;;
12407;SDS011;6268;48.188;17.134;2023-12-20T01:45:27;44.33;;;29.70;;
12407;SDS011;6268;48.188;17.134;2023-12-20T01:47:56;41.33;;;28.63;;
12407;SDS011;6268;48.188;17.134;2023-12-20T01:50:26;41.93;;;29.20;;
12407;SDS011;6268;48.188;17.134;2023-12-20T01:52:56;45.23;;;28.63;;
12407;SDS011;6268;48.188;17.134;2023-12-20T01:55:29;44.70;;;27.53;;
12407;SDS011;6268;48.188;17.134;2023-12-20T01:58:00;49.50;;;29.73;;
12407;SDS011;6268;48.188;17.134;2023-12-20T02:00:29;40.23;;;28.40;;
12407;SDS011;6268;48.188;17.134;2023-12-20T02:02:59;40.73;;;27.50;;
12407;SDS011;6268;48.188;17.134;2023-12-20T02:05:29;43.03;;;27.67;;
12407;SDS011;6268;48.188;17.134;2023-12-20T02:07:58;39.53;;;27.47;;
12407;SDS011;6268;48.188;17.134;2023-12-20T02:10:28;41.40;;;28.33;;
12407;SDS011;6268;48.188;17.134;2023-12-20T02:12:57;40.57;;;27.93;;
12407;SDS011;6268;48.188;17.134;2023-12-20T02:15:26;43.07;;;28.80;;
12407;SDS011;6268;48.188;17.134;2023-12-20T02:17:53;44.00;;;28.27;;
12407;SDS011;6268;48.188;17.134;2023-12-20T02:20:22;45.23;;;27.50;;
12407;SDS011;6268;48.188;17.134;2023-12-20T02:22:52;42.70;;;28.17;;
12407;SDS011;6268;48.188;17.134;2023-12-20T02:25:21;40.73;;;27.13;;
12407;SDS011;6268;48.188;17.134;2023-12-20T02:27:49;41.20;;;26.97;;
12407;SDS011;6268;48.188;17.134;2023-12-20T02:30:18;45.33;;;29.10;;
12407;SDS011;6268;48.188;17.134;2023-12-20T02:32:47;41.10;;;26.50;;
12407;SDS011;6268;48.188;17.134;2023-12-20T02:35:17;40.30;;;28.97;;
12407;SDS011;6268;48.188;17.134;2023-12-20T02:37:45;45.17;;;28.27;;
12407;SDS011;6268;48.188;17.134;2023-12-20T02:40:15;43.00;;;28.27;;
12407;SDS011;6268;48.188;17.134;2023-12-20T02:42:44;38.50;;;26.63;;
12407;SDS011;6268;48.188;17.134;2023-12-20T02:45:12;45.53;;;29.40;;
12407;SDS011;6268;48.188;17.134;2023-12-20T02:47:41;43.97;;;28.73;;
12407;SDS011;6268;48.188;17.134;2023-12-20T02:50:10;43.13;;;27.70;;
12407;SDS011;6268;48.188;17.134;2023-12-20T02:52:38;43.47;;;28.70;;
12407;SDS011;6268;48.188;17.134;2023-12-20T02:55:07;41.70;;;27.83;;
12407;SDS011;6268;48.188;17.134;2023-12-20T02:57:37;41.27;;;27.23;;
12407;SDS011;6268;48.188;17.134;2023-12-20T03:00:09;43.53;;;28.27;;
12407;SDS011;6268;48.188;17.134;2023-12-20T03:02:38;44.17;;;27.70;;
12407;SDS011;6268;48.188;17.134;2023-12-20T03:05:07;55.77;;;29.50;;
12407;SDS011;6268;48.188;17.134;2023-12-20T03:07:36;39.80;;;27.17;;
12407;SDS011;6268;48.188;17.134;2023-12-20T03:10:05;44.37;;;26.23;;
12407;SDS011;6268;48.188;17.134;2023-12-20T03:12:47;43.17;;;26.97;;
12407;SDS011;6268;48.188;17.134;2023-12-20T03:15:16;42.60;;;27.20;;
12407;SDS011;6268;48.188;17.134;2023-12-20T03:17:44;42.30;;;27.20;;
12407;SDS011;6268;48.188;17.134;2023-12-20T03:20:13;43.70;;;27.27;;
12407;SDS011;6268;48.188;17.134;2023-12-20T03:22:42;42.03;;;25.67;;
12407;SDS011;6268;48.188;17.134;2023-12-20T03:25:10;44.00;;;26.83;;
12407;SDS011;6268;48.188;17.134;2023-12-20T03:27:39;39.40;;;25.77;;
12407;SDS011;6268;48.188;17.134;2023-12-20T03:30:09;56.27;;;29.20;;
12407;SDS011;6268;48.188;17.134;2023-12-20T03:32:38;37.70;;;25.73;;
12407;SDS011;6268;48.188;17.134;2023-12-20T03:35:07;61.83;;;27.67;;
12407;SDS011;6268;48.188;17.134;2023-12-20T03:37:35;70.53;;;29.37;;
12407;SDS011;6268;48.188;17.134;2023-12-20T03:40:04;43.83;;;25.77;;
12407;SDS011;6268;48.188;17.134;2023-12-20T03:42:33;49.70;;;27.83;;
12407;SDS011;6268;48.188;17.134;2023-12-20T03:45:02;51.90;;;27.70;;
12407;SDS011;6268;48.188;17.134;2023-12-20T03:47:32;51.23;;;27.80;;
12407;SDS011;6268;48.188;17.134;2023-12-20T03:50:00;43.13;;;26.70;;
12407;SDS011;6268;48.188;17.134;2023-12-20T03:52:29;44.90;;;27.00;;
12407;SDS011;6268;48.188;17.134;2023-12-20T03:54:57;44.57;;;26.77;;
12407;SDS011;6268;48.188;17.134;2023-12-20T03:57:26;45.50;;;27.03;;
12407;SDS011;6268;48.188;17.134;2023-12-20T03:59:54;40.93;;;25.43;;
12407;SDS011;6268;48.188;17.134;2023-12-20T04:02:23;50.17;;;28.70;;
12407;SDS011;6268;48.188;17.134;2023-12-20T04:04:52;105.30;;;31.90;;
12407;SDS011;6268;48.188;17.134;2023-12-20T04:07:21;44.33;;;26.40;;
12407;SDS011;6268;48.188;17.134;2023-12-20T04:09:49;60.13;;;27.57;;
12407;SDS011;6268;48.188;17.134;2023-12-20T04:12:18;44.70;;;26.57;;
12407;SDS011;6268;48.188;17.134;2023-12-20T04:14:46;43.87;;;27.53;;
12407;SDS011;6268;48.188;17.134;2023-12-20T04:17:15;42.03;;;25.27;;
12407;SDS011;6268;48.188;17.134;2023-12-20T04:19:44;65.40;;;26.03;;
12407;SDS011;6268;48.188;17.134;2023-12-20T04:22:14;45.87;;;23.63;;
12407;SDS011;6268;48.188;17.134;2023-12-20T04:24:43;42.60;;;24.27;;
12407;SDS011;6268;48.188;17.134;2023-12-20T04:27:11;46.27;;;24.13;;
12407;SDS011;6268;48.188;17.134;2023-12-20T04:29:41;34.20;;;22.20;;
12407;SDS011;6268;48.188;17.134;2023-12-20T04:32:09;36.60;;;23.03;;
12407;SDS011;6268;48.188;17.134;2023-12-20T04:34:38;37.07;;;23.93;;
12407;SDS011;6268;48.188;17.134;2023-12-20T04:37:06;32.97;;;23.30;;
12407;SDS011;6268;48.188;17.134;2023-12-20T04:39:36;67.93;;;25.80;;
12407;SDS011;6268;48.188;17.134;2023-12-20T04:42:05;33.83;;;20.50;;
12407;SDS011;6268;48.188;17.134;2023-12-20T04:44:33;34.50;;;21.20;;
12407;SDS011;6268;48.188;17.134;2023-12-20T04:47:02;35.33;;;22.37;;
12407;SDS011;6268;48.188;17.134;2023-12-20T04:49:31;64.07;;;24.93;;
12407;SDS011;6268;48.188;17.134;2023-12-20T04:51:59;36.00;;;22.17;;
12407;SDS011;6268;48.188;17.134;2023-12-20T04:54:28;35.23;;;22.40;;
12407;SDS011;6268;48.188;17.134;2023-12-20T04:56:58;37.90;;;22.00;;
12407;SDS011;6268;48.188;17.134;2023-12-20T04:59:26;34.87;;;22.27;;
12407;SDS011;6268;48.188;17.134;2023-12-20T05:01:54;63.10;;;23.57;;
12407;SDS011;6268;48.188;17.134;2023-12-20T05:04:24;59.47;;;23.83;;
12407;SDS011;6268;48.188;17.134;2023-12-20T05:06:53;46.87;;;22.13;;
12407;SDS011;6268;48.188;17.134;2023-12-20T05:09:21;38.87;;;22.03;;
12407;SDS011;6268;48.188;17.134;2023-12-20T05:11:50;29.27;;;21.63;;
12407;SDS011;6268;48.188;17.134;2023-12-20T05:14:20;50.43;;;23.73;;
12407;SDS011;6268;48.188;17.134;2023-12-20T05:16:48;33.83;;;22.07;;
12407;SDS011;6268;48.188;17.134;2023-12-20T05:19:16;36.33;;;22.07;;
12407;SDS011;6268;48.188;17.134;2023-12-20T05:21:45;47.03;;;23.73;;
12407;SDS011;6268;48.188;17.134;2023-12-20T05:24:14;45.47;;;22.60;;
12407;SDS011;6268;48.188;17.134;2023-12-20T05:26:42;41.33;;;21.93;;
12407;SDS011;6268;48.188;17.134;2023-12-20T05:29:10;34.23;;;22.23;;
12407;SDS011;6268;48.188;17.134;2023-12-20T05:31:40;43.37;;;22.33;;
12407;SDS011;6268;48.188;17.134;2023-12-20T05:34:09;59.17;;;24.27;;
12407;SDS011;6268;48.188;17.134;2023-12-20T05:36:37;42.23;;;22.53;;
12407;SDS011;6268;48.188;17.134;2023-12-20T05:39:06;43.87;;;23.30;;
12407;SDS011;6268;48.188;17.134;2023-12-20T05:41:35;32.80;;;21.17;;
12407;SDS011;6268;48.188;17.134;2023-12-20T05:44:04;50.63;;;23.43;;
12407;SDS011;6268;48.188;17.134;2023-12-20T05:46:32;60.67;;;25.73;;
12407;SDS011;6268;48.188;17.134;2023-12-20T05:49:02;38.93;;;22.37;;
12407;SDS011;6268;48.188;17.134;2023-12-20T05:51:31;35.23;;;22.53;;
12407;SDS011;6268;48.188;17.134;2023-12-20T05:54:00;33.00;;;20.97;;
12407;SDS011;6268;48.188;17.134;2023-12-20T05:56:28;34.80;;;22.90;;
12407;SDS011;6268;48.188;17.134;2023-12-20T05:58:56;31.63;;;21.83;;
12407;SDS011;6268;48.188;17.134;2023-12-20T06:01:25;34.70;;;21.83;;
12407;SDS011;6268;48.188;17.134;2023-12-20T06:03:54;39.00;;;23.43;;
12407;SDS011;6268;48.188;17.134;2023-12-20T06:06:24;33.03;;;21.90;;
12407;SDS011;6268;48.188;17.134;2023-12-20T06:08:52;36.43;;;23.67;;
12407;SDS011;6268;48.188;17.134;2023-12-20T06:11:21;49.23;;;27.43;;
12407;SDS011;6268;48.188;17.134;2023-12-20T06:13:49;49.50;;;26.83;;
12407;SDS011;6268;48.188;17.134;2023-12-20T06:16:20;36.57;;;22.50;;
12407;SDS011;6268;48.188;17.134;2023-12-20T06:18:48;42.67;;;23.90;;
12407;SDS011;6268;48.188;17.134;2023-12-20T06:21:17;37.07;;;22.87;;
12407;SDS011;6268;48.188;17.134;2023-12-20T06:23:47;34.73;;;22.77;;
12407;SDS011;6268;48.188;17.134;2023-12-20T06:26:15;32.97;;;22.43;;
12407;SDS011;6268;48.188;17.134;2023-12-20T06:28:44;30.87;;;20.70;;
12407;SDS011;6268;48.188;17.134;2023-12-20T06:31:12;32.90;;;21.40;;
12407;SDS011;6268;48.188;17.134;2023-12-20T06:33:42;34.80;;;21.73;;
12407;SDS011;6268;48.188;17.134;2023-12-20T06:36:11;37.23;;;21.70;;
12407;SDS011;6268;48.188;17.134;2023-12-20T06:38:40;36.70;;;22.50;;
12407;SDS011;6268;48.188;17.134;2023-12-20T06:41:13;34.47;;;22.00;;
12407;SDS011;6268;48.188;17.134;2023-12-20T06:43:43;37.60;;;23.43;;
12407;SDS011;6268;48.188;17.134;2023-12-20T06:46:16;37.10;;;22.63;;
12407;SDS011;6268;48.188;17.134;2023-12-20T06:48:45;41.37;;;24.17;;
12407;SDS011;6268;48.188;17.134;2023-12-20T06:51:14;41.37;;;22.47;;
12407;SDS011;6268;48.188;17.134;2023-12-20T06:53:43;34.90;;;21.90;;
12407;SDS011;6268;48.188;17.134;2023-12-20T06:56:12;35.47;;;22.70;;
12407;SDS011;6268;48.188;17.134;2023-12-20T06:58:45;31.80;;;20.87;;
12407;SDS011;6268;48.188;17.134;2023-12-20T07:01:13;37.90;;;22.77;;
12407;SDS011;6268;48.188;17.134;2023-12-20T07:03:43;30.73;;;19.73;;
12407;SDS011;6268;48.188;17.134;2023-12-20T07:06:12;37.73;;;21.10;;
12407;SDS011;6268;48.188;17.134;2023-12-20T07:08:42;34.13;;;21.57;;
12407;SDS011;6268;48.188;17.134;2023-12-20T07:11:11;39.17;;;21.83;;
12407;SDS011;6268;48.188;17.134;2023-12-20T07:13:41;37.17;;;22.07;;
12407;SDS011;6268;48.188;17.134;2023-12-20T07:16:09;34.27;;;21.73;;
12407;SDS011;6268;48.188;17.134;2023-12-20T07:18:38;51.93;;;23.10;;
12407;SDS011;6268;48.188;17.134;2023-12-20T07:21:06;40.50;;;22.33;;
12407;SDS011;6268;48.188;17.134;2023-12-20T07:23:35;41.57;;;22.73;;
12407;SDS011;6268;48.188;17.134;2023-12-20T07:26:04;37.87;;;22.53;;
12407;SDS011;6268;48.188;17.134;2023-12-20T07:28:32;34.37;;;22.30;;
12407;SDS011;6268;48.188;17.134;2023-12-20T07:31:02;32.20;;;21.70;;
12407;SDS011;6268;48.188;17.134;2023-12-20T07:33:31;37.00;;;22.40;;
12407;SDS011;6268;48.188;17.134;2023-12-20T07:36:05;39.47;;;22.63;;
12407;SDS011;6268;48.188;17.134;2023-12-20T07:38:35;35.27;;;21.53;;
12407;SDS011;6268;48.188;17.134;2023-12-20T07:41:03;38.37;;;24.53;;
12407;SDS011;6268;48.188;17.134;2023-12-20T07:43:32;40.67;;;23.70;;
12407;SDS011;6268;48.188;17.134;2023-12-20T07:46:05;38.23;;;22.67;;
12407;SDS011;6268;48.188;17.134;2023-12-20T07:48:34;39.00;;;24.23;;
12407;SDS011;6268;48.188;17.134;2023-12-20T07:51:03;37.33;;;23.63;;
12407;SDS011;6268;48.188;17.134;2023-12-20T07:53:32;41.03;;;24.33;;
12407;SDS011;6268;48.188;17.134;2023-12-20T07:56:01;34.83;;;22.50;;
12407;SDS011;6268;48.188;17.134;2023-12-20T07:58:30;38.40;;;23.13;;
12407;SDS011;6268;48.188;17.134;2023-12-20T08:01:18;36.70;;;23.13;;
12407;SDS011;6268;48.188;17.134;2023-12-20T08:03:48;36.23;;;21.73;;
12407;SDS011;6268;48.188;17.134;2023-12-20T08:06:17;38.33;;;22.63;;
12407;SDS011;6268;48.188;17.134;2023-12-20T08:08:46;36.73;;;23.83;;
12407;SDS011;6268;48.188;17.134;2023-12-20T08:11:26;37.00;;;22.87;;
12407;SDS011;6268;48.188;17.134;2023-12-20T08:13:55;35.93;;;23.63;;
12407;SDS011;6268;48.188;17.134;2023-12-20T08:16:26;48.10;;;26.57;;
12407;SDS011;6268;48.188;17.134;2023-12-20T08:18:54;43.37;;;26.07;;
12407;SDS011;6268;48.188;17.134;2023-12-20T08:21:23;68.93;;;33.07;;
12407;SDS011;6268;48.188;17.134;2023-12-20T08:23:52;82.43;;;37.80;;
12407;SDS011;6268;48.188;17.134;2023-12-20T08:26:19;92.47;;;39.93;;
12407;SDS011;6268;48.188;17.134;2023-12-20T08:28:49;102.67;;;44.90;;
12407;SDS011;6268;48.188;17.134;2023-12-20T08:31:18;97.97;;;43.20;;
12407;SDS011;6268;48.188;17.134;2023-12-20T08:33:49;83.90;;;39.60;;
12407;SDS011;6268;48.188;17.134;2023-12-20T08:36:19;82.77;;;40.67;;
12407;SDS011;6268;48.188;17.134;2023-12-20T08:38:50;80.17;;;37.03;;
12407;SDS011;6268;48.188;17.134;2023-12-20T08:41:18;78.13;;;37.43;;
12407;SDS011;6268;48.188;17.134;2023-12-20T08:43:47;74.80;;;36.87;;
12407;SDS011;6268;48.188;17.134;2023-12-20T08:46:16;69.20;;;35.60;;
12407;SDS011;6268;48.188;17.134;2023-12-20T08:48:45;67.47;;;35.10;;
12407;SDS011;6268;48.188;17.134;2023-12-20T08:51:15;55.80;;;29.47;;
12407;SDS011;6268;48.188;17.134;2023-12-20T08:53:44;48.37;;;28.67;;
12407;SDS011;6268;48.188;17.134;2023-12-20T08:56:14;34.37;;;19.73;;
12407;SDS011;6268;48.188;17.134;2023-12-20T08:58:43;32.87;;;19.37;;
12407;SDS011;6268;48.188;17.134;2023-12-20T09:01:12;25.87;;;15.80;;
12407;SDS011;6268;48.188;17.134;2023-12-20T09:03:40;24.67;;;14.87;;
12407;SDS011;6268;48.188;17.134;2023-12-20T09:06:10;25.33;;;14.10;;
12407;SDS011;6268;48.188;17.134;2023-12-20T09:08:40;23.20;;;15.00;;
12407;SDS011;6268;48.188;17.134;2023-12-20T09:11:08;8.53;;;6.87;;
12407;SDS011;6268;48.188;17.134;2023-12-20T09:13:37;8.33;;;6.77;;
12407;SDS011;6268;48.188;17.134;2023-12-20T09:16:06;8.80;;;7.47;;
12407;SDS011;6268;48.188;17.134;2023-12-20T09:18:34;7.17;;;6.07;;
12407;SDS011;6268;48.188;17.134;2023-12-20T09:21:03;7.20;;;6.27;;
12407;SDS011;6268;48.188;17.134;2023-12-20T09:23:31;6.80;;;5.83;;
12407;SDS011;6268;48.188;17.134;2023-12-20T09:26:01;6.83;;;5.70;;
12407;SDS011;6268;48.188;17.134;2023-12-20T09:28:30;8.27;;;5.70;;
12407;SDS011;6268;48.188;17.134;2023-12-20T09:31:04;6.00;;;5.40;;
12407;SDS011;6268;48.188;17.134;2023-12-20T09:33:33;5.83;;;4.87;;
12407;SDS011;6268;48.188;17.134;2023-12-20T09:36:02;5.40;;;4.90;;
12407;SDS011;6268;48.188;17.134;2023-12-20T09:38:31;5.90;;;5.30;;
12407;SDS011;6268;48.188;17.134;2023-12-20T09:40:59;7.67;;;6.73;;
12407;SDS011;6268;48.188;17.134;2023-12-20T09:43:31;5.57;;;5.07;;
12407;SDS011;6268;48.188;17.134;2023-12-20T09:46:05;8.67;;;6.97;;
12407;SDS011;6268;48.188;17.134;2023-12-20T09:48:35;6.13;;;5.17;;
12407;SDS011;6268;48.188;17.134;2023-12-20T09:51:05;4.87;;;4.47;;
12407;SDS011;6268;48.188;17.134;2023-12-20T09:53:33;4.97;;;4.57;;
12407;SDS011;6268;48.188;17.134;2023-12-20T09:56:06;5.27;;;4.77;;
12407;SDS011;6268;48.188;17.134;2023-12-20T09:58:36;6.30;;;4.87;;
12407;SDS011;6268;48.188;17.134;2023-12-20T10:01:06;5.20;;;4.70;;
12407;SDS011;6268;48.188;17.134;2023-12-20T10:03:35;6.27;;;4.20;;
12407;SDS011;6268;48.188;17.134;2023-12-20T10:06:07;4.23;;;3.80;;
12407;SDS011;6268;48.188;17.134;2023-12-20T10:08:35;3.87;;;3.50;;
12407;SDS011;6268;48.188;17.134;2023-12-20T10:11:06;3.80;;;3.50;;
12407;SDS011;6268;48.188;17.134;2023-12-20T10:13:36;4.57;;;4.17;;
12407;SDS011;6268;48.188;17.134;2023-12-20T10:16:07;4.23;;;3.83;;
12407;SDS011;6268;48.188;17.134;2023-12-20T10:18:36;4.10;;;3.80;;
12407;SDS011;6268;48.188;17.134;2023-12-20T10:21:05;3.73;;;3.43;;
12407;SDS011;6268;48.188;17.134;2023-12-20T10:23:37;3.40;;;3.10;;
12407;SDS011;6268;48.188;17.134;2023-12-20T10:26:08;4.60;;;3.40;;
12407;SDS011;6268;48.188;17.134;2023-12-20T10:28:36;9.57;;;7.37;;
12407;SDS011;6268;48.188;17.134;2023-12-20T10:31:05;4.40;;;3.30;;
12407;SDS011;6268;48.188;17.134;2023-12-20T10:33:34;4.22;;;3.60;;
12407;SDS011;6268;48.188;17.134;2023-12-20T10:36:03;7.73;;;6.67;;
12407;SDS011;6268;48.188;17.134;2023-12-20T10:38:33;3.60;;;3.30;;
12407;SDS011;6268;48.188;17.134;2023-12-20T10:41:03;3.10;;;2.90;;
12407;SDS011;6268;48.188;17.134;2023-12-20T10:43:35;4.77;;;4.30;;
12407;SDS011;6268;48.188;17.134;2023-12-20T10:46:04;2.95;;;2.75;;
12407;SDS011;6268;48.188;17.134;2023-12-20T10:48:33;3.13;;;2.83;;
12407;SDS011;6268;48.188;17.134;2023-12-20T10:51:04;2.40;;;2.20;;
12407;SDS011;6268;48.188;17.134;2023-12-20T10:53:33;2.33;;;2.13;;
12407;SDS011;6268;48.188;17.134;2023-12-20T10:56:03;2.10;;;2.00;;
12407;SDS011;6268;48.188;17.134;2023-12-20T10:58:35;2.53;;;1.90;;
12407;SDS011;6268;48.188;17.134;2023-12-20T11:01:09;4.07;;;3.67;;
12407;SDS011;6268;48.188;17.134;2023-12-20T11:03:42;2.30;;;2.10;;
12407;SDS011;6268;48.188;17.134;2023-12-20T11:06:18;1.90;;;1.80;;
12407;SDS011;6268;48.188;17.134;2023-12-20T11:08:58;2.17;;;2.00;;
12407;SDS011;6268;48.188;17.134;2023-12-20T11:11:38;1.75;;;1.65;;
12407;SDS011;6268;48.188;17.134;2023-12-20T11:14:19;2.30;;;2.10;;
12407;SDS011;6268;48.188;17.134;2023-12-20T11:16:56;2.00;;;1.90;;
12407;SDS011;6268;48.188;17.134;2023-12-20T11:19:35;1.92;;;1.83;;
12407;SDS011;6268;48.188;17.134;2023-12-20T11:22:05;2.05;;;1.92;;
12407;SDS011;6268;48.188;17.134;2023-12-20T11:24:34;2.10;;;2.00;;
12407;SDS011;6268;48.188;17.134;2023-12-20T11:27:04;2.08;;;1.90;;
12407;SDS011;6268;48.188;17.134;2023-12-20T11:29:35;1.95;;;1.85;;
12407;SDS011;6268;48.188;17.134;2023-12-20T11:32:27;1.92;;;1.73;;
12407;SDS011;6268;48.188;17.134;2023-12-20T11:34:57;1.50;;;1.40;;
12407;SDS011;6268;48.188;17.134;2023-12-20T11:37:30;1.58;;;1.48;;
12407;SDS011;6268;48.188;17.134;2023-12-20T11:40:03;1.77;;;1.67;;
12407;SDS011;6268;48.188;17.134;2023-12-20T11:42:37;1.80;;;1.70;;
12407;SDS011;6268;48.188;17.134;2023-12-20T11:45:09;1.95;;;1.85;;
12407;SDS011;6268;48.188;17.134;2023-12-20T11:47:42;1.48;;;1.42;;
12407;SDS011;6268;48.188;17.134;2023-12-20T11:50:12;2.28;;;2.08;;
12407;SDS011;6268;48.188;17.134;2023-12-20T11:52:41;1.92;;;1.77;;
12407;SDS011;6268;48.188;17.134;2023-12-20T11:55:09;1.52;;;1.40;;
12407;SDS011;6268;48.188;17.134;2023-12-20T11:57:39;1.77;;;1.67;;
12407;SDS011;6268;48.188;17.134;2023-12-20T12:00:10;1.50;;;1.40;;
12407;SDS011;6268;48.188;17.134;2023-12-20T12:02:39;1.80;;;1.70;;
12407;SDS011;6268;48.188;17.134;2023-12-20T12:05:07;1.65;;;1.55;;
12407;SDS011;6268;48.188;17.134;2023-12-20T12:07:36;1.48;;;1.38;;
12407;SDS011;6268;48.188;17.134;2023-12-20T12:10:05;2.75;;;1.77;;
12407;SDS011;6268;48.188;17.134;2023-12-20T12:12:35;3.22;;;2.80;;
12407;SDS011;6268;48.188;17.134;2023-12-20T12:15:04;1.45;;;1.45;;
12407;SDS011;6268;48.188;17.134;2023-12-20T12:17:36;2.03;;;1.92;;
12407;SDS011;6268;48.188;17.134;2023-12-20T12:20:05;2.38;;;2.17;;
12407;SDS011;6268;48.188;17.134;2023-12-20T12:22:36;5.40;;;4.90;;
12407;SDS011;6268;48.188;17.134;2023-12-20T12:25:11;1.70;;;1.60;;
12407;SDS011;6268;48.188;17.134;2023-12-20T12:27:41;2.40;;;2.30;;
12407;SDS011;6268;48.188;17.134;2023-12-20T12:30:10;2.08;;;1.98;;
12407;SDS011;6268;48.188;17.134;2023-12-20T12:32:41;1.80;;;1.70;;
12407;SDS011;6268;48.188;17.134;2023-12-20T12:35:09;1.63;;;1.52;;
12407;SDS011;6268;48.188;17.134;2023-12-20T12:37:39;1.70;;;1.60;;
12407;SDS011;6268;48.188;17.134;2023-12-20T12:40:09;1.65;;;1.55;;
12407;SDS011;6268;48.188;17.134;2023-12-20T12:42:40;1.90;;;1.67;;
12407;SDS011;6268;48.188;17.134;2023-12-20T12:45:10;2.70;;;2.30;;
12407;SDS011;6268;48.188;17.134;2023-12-20T12:47:40;2.47;;;2.38;;
12407;SDS011;6268;48.188;17.134;2023-12-20T12:50:09;4.03;;;3.80;;
12407;SDS011;6268;48.188;17.134;2023-12-20T12:52:40;3.65;;;3.45;;
12407;SDS011;6268;48.188;17.134;2023-12-20T12:55:08;3.40;;;3.13;;
12407;SDS011;6268;48.188;17.134;2023-12-20T12:57:37;3.08;;;2.88;;
12407;SDS011;6268;48.188;17.134;2023-12-20T13:00:06;2.10;;;2.00;;
12407;SDS011;6268;48.188;17.134;2023-12-20T13:02:36;2.30;;;2.20;;
12407;SDS011;6268;48.188;17.134;2023-12-20T13:05:10;1.90;;;1.80;;
12407;SDS011;6268;48.188;17.134;2023-12-20T13:07:39;3.35;;;2.40;;
12407;SDS011;6268;48.188;17.134;2023-12-20T13:10:08;2.00;;;1.90;;
12407;SDS011;6268;48.188;17.134;2023-12-20T13:12:37;2.08;;;1.98;;
12407;SDS011;6268;48.188;17.134;2023-12-20T13:15:06;2.15;;;2.05;;
12407;SDS011;6268;48.188;17.134;2023-12-20T13:17:35;4.68;;;4.28;;
12407;SDS011;6268;48.188;17.134;2023-12-20T13:20:04;2.83;;;2.72;;
12407;SDS011;6268;48.188;17.134;2023-12-20T13:22:35;3.65;;;3.35;;
12407;SDS011;6268;48.188;17.134;2023-12-20T13:25:04;2.60;;;2.40;;
12407;SDS011;6268;48.188;17.134;2023-12-20T13:27:33;3.40;;;3.20;;
12407;SDS011;6268;48.188;17.134;2023-12-20T13:30:02;2.58;;;2.30;;
12407;SDS011;6268;48.188;17.134;2023-12-20T13:32:31;2.47;;;2.30;;
12407;SDS011;6268;48.188;17.134;2023-12-20T13:35:00;2.45;;;2.35;;
12407;SDS011;6268;48.188;17.134;2023-12-20T13:37:28;2.17;;;2.08;;
12407;SDS011;6268;48.188;17.134;2023-12-20T13:39:58;2.38;;;2.17;;
12407;SDS011;6268;48.188;17.134;2023-12-20T13:42:28;2.10;;;2.00;;
12407;SDS011;6268;48.188;17.134;2023-12-20T13:44:56;1.90;;;1.80;;
12407;SDS011;6268;48.188;17.134;2023-12-20T13:47:25;2.45;;;2.25;;
12407;SDS011;6268;48.188;17.134;2023-12-20T13:49:53;1.92;;;1.83;;
12407;SDS011;6268;48.188;17.134;2023-12-20T13:52:22;2.20;;;2.10;;
12407;SDS011;6268;48.188;17.134;2023-12-20T13:54:51;2.17;;;2.08;;
12407;SDS011;6268;48.188;17.134;2023-12-20T13:57:21;2.28;;;2.17;;
12407;SDS011;6268;48.188;17.134;2023-12-20T14:00:10;2.80;;;2.17;;
12407;SDS011;6268;48.188;17.134;2023-12-20T14:02:41;4.97;;;1.55;;
12407;SDS011;6268;48.188;17.134;2023-12-20T14:05:10;1.90;;;1.80;;
12407;SDS011;6268;48.188;17.134;2023-12-20T14:07:40;1.90;;;1.80;;
12407;SDS011;6268;48.188;17.134;2023-12-20T14:10:12;4.05;;;3.75;;
12407;SDS011;6268;48.188;17.134;2023-12-20T14:12:43;2.30;;;2.10;;
12407;SDS011;6268;48.188;17.134;2023-12-20T14:15:11;1.70;;;1.60;;
12407;SDS011;6268;48.188;17.134;2023-12-20T14:17:40;2.80;;;2.60;;
12407;SDS011;6268;48.188;17.134;2023-12-20T14:20:10;2.13;;;2.03;;
12407;SDS011;6268;48.188;17.134;2023-12-20T14:22:40;1.92;;;1.83;;
12407;SDS011;6268;48.188;17.134;2023-12-20T14:25:11;1.58;;;1.50;;
12407;SDS011;6268;48.188;17.134;2023-12-20T14:27:39;2.75;;;2.63;;
12407;SDS011;6268;48.188;17.134;2023-12-20T14:30:13;1.80;;;1.70;;
12407;SDS011;6268;48.188;17.134;2023-12-20T14:32:43;2.42;;;2.22;;
12407;SDS011;6268;48.188;17.134;2023-12-20T14:35:12;2.00;;;1.90;;
12407;SDS011;6268;48.188;17.134;2023-12-20T14:37:41;3.85;;;2.80;;
12407;SDS011;6268;48.188;17.134;2023-12-20T14:40:10;3.38;;;2.65;;
12407;SDS011;6268;48.188;17.134;2023-12-20T14:42:43;1.50;;;1.40;;
12407;SDS011;6268;48.188;17.134;2023-12-20T14:45:13;1.20;;;1.20;;